createdAt,value
2022-10-11T00:02:12.943Z,8.50
2022-10-11T00:04:56.791Z,8.50
2022-10-11T00:07:24.644Z,8.50
2022-10-11T00:09:52.465Z,8.50
2022-10-11T00:12:20.412Z,8.50
2022-10-11T00:14:48.253Z,8.50
2022-10-11T00:17:16.126Z,8.40
2022-10-11T00:19:43.978Z,8.40
2022-10-11T00:22:13.479Z,8.30
2022-10-11T00:24:41.328Z,8.30
2022-10-11T00:27:09.210Z,8.30
2022-10-11T00:29:38.534Z,8.30
2022-10-11T00:32:07.197Z,8.30
2022-10-11T00:34:34.979Z,8.30
2022-10-11T00:37:02.922Z,8.20
2022-10-11T00:39:32.423Z,8.20
2022-10-11T00:42:00.298Z,8.10
2022-10-11T00:44:30.433Z,8.10
2022-10-11T00:47:01.607Z,8.10
2022-10-11T00:49:35.159Z,8.10
2022-10-11T00:52:06.879Z,8.20
2022-10-11T00:54:40.475Z,8.20
2022-10-11T00:57:11.608Z,8.30
2022-10-11T00:59:44.760Z,8.40
2022-10-11T01:02:13.823Z,8.40
2022-10-11T01:04:42.882Z,8.50
2022-10-11T01:07:11.873Z,8.50
2022-10-11T01:09:41.310Z,8.50
2022-10-11T01:12:17.679Z,8.50
2022-10-11T01:15:05.288Z,8.50
2022-10-11T01:17:40.555Z,8.50
2022-10-11T01:20:34.442Z,8.50
2022-10-11T01:23:35.939Z,8.50
2022-10-11T01:26:34.305Z,8.40
2022-10-11T01:29:11.805Z,8.40
2022-10-11T01:31:47.790Z,8.30
2022-10-11T01:34:21.383Z,8.30
2022-10-11T01:36:57.197Z,8.30
2022-10-11T01:39:31.226Z,8.30
2022-10-11T01:42:02.769Z,8.20
2022-10-11T01:44:32.663Z,8.20
2022-10-11T01:47:01.939Z,8.20
2022-10-11T01:49:29.863Z,8.20
2022-10-11T01:52:01.938Z,8.20
2022-10-11T01:55:08.717Z,8.30
2022-10-11T01:57:48.582Z,8.30
2022-10-11T02:00:19.238Z,8.30
2022-10-11T02:02:57.677Z,8.40
2022-10-11T02:05:31.726Z,8.40
2022-10-11T02:08:07.657Z,8.50
2022-10-11T02:10:40.473Z,8.50
2022-10-11T02:13:13.538Z,8.60
2022-10-11T02:15:43.943Z,8.60
2022-10-11T02:18:17.585Z,8.60
2022-10-11T02:20:47.922Z,8.60
2022-10-11T02:23:20.671Z,8.60
2022-10-11T02:25:50.232Z,8.60
2022-10-11T02:28:22.597Z,8.60
2022-10-11T02:30:52.206Z,8.60
2022-10-11T02:33:25.818Z,8.60
2022-10-11T02:36:02.551Z,8.60
2022-10-11T02:38:38.407Z,8.50
2022-10-11T02:41:13.898Z,8.50
2022-10-11T02:43:47.159Z,8.50
2022-10-11T02:46:17.650Z,8.60
2022-10-11T02:48:47.038Z,8.60
2022-10-11T02:51:15.527Z,8.50
2022-10-11T02:53:43.515Z,8.50
2022-10-11T02:56:11.463Z,8.50
2022-10-11T02:58:39.312Z,8.50
2022-10-11T03:01:07.631Z,8.50
2022-10-11T03:03:35.491Z,8.50
2022-10-11T03:06:06.094Z,8.50
2022-10-11T03:08:34.664Z,8.40
2022-10-11T03:11:02.637Z,8.40
2022-10-11T03:13:36.165Z,8.40
2022-10-11T03:16:04.071Z,8.40
2022-10-11T03:18:32.559Z,8.40
2022-10-11T03:21:00.912Z,8.30
2022-10-11T03:23:37.924Z,8.30
2022-10-11T03:26:06.740Z,8.30
2022-10-11T03:28:34.927Z,8.30
2022-10-11T03:31:08.532Z,8.20
2022-10-11T03:33:36.928Z,8.20
2022-10-11T03:36:05.988Z,8.10
2022-10-11T03:38:35.626Z,8.10
2022-10-11T03:41:06.121Z,8.10
2022-10-11T03:43:35.960Z,8.10
2022-10-11T03:46:04.673Z,8.00
2022-10-11T03:48:33.816Z,8.00
2022-10-11T03:51:06.413Z,8.00
2022-10-11T03:53:56.694Z,8.00
2022-10-11T03:56:28.751Z,8.00
2022-10-11T03:58:57.797Z,8.00
2022-10-11T04:01:25.761Z,8.10
2022-10-11T04:10:37.233Z,8.10
2022-10-11T04:13:11.353Z,8.10
2022-10-11T04:15:41.982Z,8.10
2022-10-11T04:18:15.389Z,8.10
2022-10-11T04:20:44.611Z,8.10
2022-10-11T04:23:13.143Z,8.20
2022-10-11T04:25:45.523Z,8.20
2022-10-11T04:28:14.124Z,8.20
2022-10-11T04:30:42.055Z,8.30
2022-10-11T04:33:11.589Z,8.30
2022-10-11T04:35:39.442Z,8.30
2022-10-11T04:38:12.773Z,8.30
2022-10-11T04:40:42.172Z,8.40
2022-10-11T04:43:10.109Z,8.40
2022-10-11T04:45:38.509Z,8.50
2022-10-11T04:48:08.154Z,8.50
2022-10-11T04:50:37.199Z,8.50
2022-10-11T04:53:05.551Z,8.50
2022-10-11T04:55:33.443Z,8.60
2022-10-11T04:58:02.969Z,8.60
2022-10-11T05:00:31.415Z,8.60
2022-10-11T05:02:59.491Z,8.60
2022-10-11T05:05:27.368Z,8.60
2022-10-11T05:07:56.691Z,8.60
2022-10-11T05:10:24.540Z,8.60
2022-10-11T05:12:52.552Z,8.60
2022-10-11T05:15:22.155Z,8.60
2022-10-11T05:17:50.612Z,8.70
2022-10-11T05:23:01.613Z,8.60
2022-10-11T05:25:29.746Z,8.60
2022-10-11T05:27:59.236Z,8.60
2022-10-11T05:30:31.875Z,8.60
2022-10-11T05:33:00.122Z,8.60
2022-10-11T05:35:27.989Z,8.60
2022-10-11T05:37:55.885Z,8.60
2022-10-11T05:40:33.933Z,8.50
2022-10-11T05:43:01.855Z,8.50
2022-10-11T05:45:32.197Z,8.40
2022-10-11T05:48:00.454Z,8.40
2022-10-11T05:50:28.485Z,8.30
2022-10-11T05:52:57.431Z,8.30
2022-10-11T05:55:25.345Z,8.30
2022-10-11T05:57:55.483Z,8.40
2022-10-11T06:00:27.459Z,8.40
2022-10-11T06:02:58.669Z,8.40
2022-10-11T06:05:29.534Z,8.30
2022-10-11T06:07:59.618Z,8.40
2022-10-11T06:10:29.440Z,8.30
2022-10-11T06:12:57.938Z,8.40
2022-10-11T06:15:29.289Z,8.40
2022-10-11T06:17:59.910Z,8.40
2022-10-11T06:20:28.295Z,8.40
2022-10-11T06:22:56.338Z,8.30
2022-10-11T06:25:24.293Z,8.30
2022-10-11T06:27:52.448Z,8.30
2022-10-11T06:30:20.528Z,8.30
2022-10-11T06:32:48.434Z,8.30
2022-10-11T06:35:17.904Z,8.30
2022-10-11T06:37:45.833Z,8.30
2022-10-11T06:40:13.990Z,8.30
2022-10-11T06:42:46.822Z,8.30
2022-10-11T06:48:32.622Z,8.30
2022-10-11T06:51:03.954Z,8.30
2022-10-11T06:53:39.238Z,8.30
2022-10-11T07:05:03.866Z,8.40
2022-10-11T07:07:33.954Z,8.50
2022-10-11T07:10:11.443Z,8.50
2022-10-11T07:12:41.025Z,8.50
2022-10-11T07:15:18.611Z,8.60
2022-10-11T07:17:49.357Z,8.60
2022-10-11T07:20:17.333Z,8.60
2022-10-11T07:22:46.536Z,8.60
2022-10-11T07:25:14.460Z,8.70
2022-10-11T07:27:42.688Z,8.70
2022-10-11T07:30:15.917Z,8.80
2022-10-11T07:32:44.241Z,8.80
2022-10-11T07:35:12.590Z,8.90
2022-10-11T07:37:40.566Z,8.90
2022-10-11T07:40:18.891Z,9.00
2022-10-11T07:42:57.146Z,9.00
2022-10-11T07:45:29.854Z,9.10
2022-10-11T07:48:04.673Z,9.10
2022-10-11T07:50:38.730Z,9.20
2022-10-11T07:53:13.790Z,9.20
2022-10-11T07:56:18.648Z,9.30
2022-10-11T07:58:55.125Z,9.40
2022-10-11T08:01:27.834Z,9.50
2022-10-11T08:03:56.808Z,9.60
2022-10-11T08:06:37.039Z,9.70
2022-10-11T08:09:10.126Z,9.70
2022-10-11T08:11:44.344Z,9.80
2022-10-11T08:14:18.610Z,9.80
2022-10-11T08:16:48.847Z,9.90
2022-10-11T08:19:20.339Z,10.00
2022-10-11T08:25:12.797Z,10.10
2022-10-11T08:27:48.013Z,10.20
2022-10-11T08:30:28.984Z,10.30
2022-10-11T08:36:04.689Z,10.50
2022-10-11T08:38:54.002Z,10.60
2022-10-11T08:45:16.402Z,10.80
2022-10-11T08:47:46.138Z,10.90
2022-10-11T08:50:19.733Z,10.90
2022-10-11T08:52:51.844Z,11.00
2022-10-11T08:55:25.732Z,11.00
2022-10-11T08:57:56.521Z,11.20
2022-10-11T09:00:31.122Z,11.30
2022-10-11T09:03:09.743Z,11.40
2022-10-11T09:05:47.963Z,11.50
2022-10-11T09:08:22.154Z,11.50
2022-10-11T09:10:59.890Z,11.60
2022-10-11T09:14:02.559Z,11.70
2022-10-11T09:16:48.555Z,11.80
2022-10-11T09:19:33.831Z,11.80
2022-10-11T09:22:09.487Z,11.90
2022-10-11T09:25:01.372Z,11.90
2022-10-11T09:28:06.869Z,11.90
2022-10-11T09:30:50.447Z,11.90
2022-10-11T09:33:29.087Z,11.90
2022-10-11T09:35:58.343Z,11.90
2022-10-11T09:38:35.118Z,12.00
2022-10-11T09:41:22.622Z,12.00
2022-10-11T09:43:55.966Z,12.10
2022-10-11T09:46:44.187Z,12.20
2022-10-11T09:49:16.714Z,12.30
2022-10-11T09:51:52.334Z,12.40
2022-10-11T09:54:27.423Z,12.50
2022-10-11T09:56:55.415Z,12.60
2022-10-11T09:59:29.998Z,12.70
2022-10-11T10:02:36.444Z,12.70
2022-10-11T10:05:35.866Z,12.80
2022-10-11T10:08:45.203Z,12.80
2022-10-11T10:11:14.744Z,12.90
2022-10-11T10:14:13.224Z,13.00
2022-10-11T10:20:02.928Z,13.20
2022-10-11T10:22:39.547Z,13.30
2022-10-11T10:25:09.271Z,13.40
2022-10-11T10:27:37.816Z,13.40
2022-10-11T10:30:35.328Z,13.40
2022-10-11T10:33:54.606Z,13.50
2022-10-11T10:37:06.030Z,13.50
2022-10-11T10:39:46.198Z,13.50
2022-10-11T10:42:16.609Z,13.50
2022-10-11T10:45:21.127Z,13.50
2022-10-11T10:48:13.710Z,13.50
2022-10-11T10:51:41.440Z,13.50
2022-10-11T10:57:15.241Z,13.60
2022-10-11T11:00:11.901Z,13.70
2022-10-11T11:06:24.686Z,13.70
2022-10-11T11:09:08.408Z,13.80
2022-10-11T11:12:11.451Z,13.90
2022-10-11T11:14:51.283Z,13.90
2022-10-11T11:17:29.094Z,13.90
2022-10-11T11:20:18.017Z,14.00
2022-10-11T11:22:57.517Z,14.00
2022-10-11T11:25:34.029Z,14.00
2022-10-11T11:28:27.073Z,14.00
2022-10-11T11:31:01.549Z,14.00
2022-10-11T11:33:38.482Z,14.00
2022-10-11T11:36:12.457Z,14.00
2022-10-11T11:38:44.928Z,14.10
2022-10-11T11:41:18.423Z,14.10
2022-10-11T11:43:59.074Z,14.00
2022-10-11T11:46:32.920Z,14.00
2022-10-11T11:49:10.802Z,13.90
2022-10-11T11:51:43.755Z,13.90
2022-10-11T11:54:32.428Z,13.90
2022-10-11T11:57:08.312Z,13.90
2022-10-11T11:59:44.803Z,13.80
2022-10-11T12:02:33.711Z,13.80
2022-10-11T12:05:02.306Z,13.70
2022-10-11T12:07:30.723Z,13.80
2022-10-11T12:10:18.056Z,13.80
2022-10-11T12:12:46.165Z,13.90
2022-10-11T12:15:22.333Z,13.90
2022-10-11T12:18:05.777Z,14.00
2022-10-11T12:27:39.528Z,14.10
2022-10-11T12:34:35.193Z,14.20
2022-10-11T12:37:40.056Z,14.30
2022-10-11T12:40:41.744Z,14.30
2022-10-11T12:43:29.121Z,14.40
2022-10-11T12:46:38.591Z,14.50
2022-10-11T12:49:27.187Z,14.40
2022-10-11T12:52:17.284Z,14.30
2022-10-11T12:55:02.499Z,14.30
2022-10-11T12:57:56.112Z,14.30
2022-10-11T13:00:29.024Z,14.30
2022-10-11T13:03:07.432Z,14.30
2022-10-11T13:05:45.583Z,14.20
2022-10-11T13:08:19.790Z,14.20
2022-10-11T13:10:49.101Z,14.10
2022-10-11T13:13:22.508Z,14.20
2022-10-11T13:16:10.326Z,14.10
2022-10-11T13:25:07.815Z,14.20
2022-10-11T13:27:38.445Z,14.20
2022-10-11T13:30:23.730Z,14.30
2022-10-11T13:33:00.022Z,14.30
2022-10-11T13:35:34.116Z,14.30
2022-10-11T13:38:21.419Z,14.40
2022-10-11T13:40:51.167Z,14.50
2022-10-11T13:43:38.087Z,14.50
2022-10-11T13:46:08.105Z,14.60
2022-10-11T13:48:40.970Z,14.60
2022-10-11T13:51:10.338Z,14.70
2022-10-11T13:54:13.967Z,14.70
2022-10-11T13:57:35.576Z,14.70
2022-10-11T14:00:45.881Z,14.60
2022-10-11T14:03:36.394Z,14.60
2022-10-11T14:06:11.250Z,14.50
2022-10-11T14:09:26.772Z,14.40
2022-10-11T14:12:49.456Z,14.40
2022-10-11T14:15:26.480Z,14.40
2022-10-11T14:17:54.436Z,14.40
2022-10-11T14:20:24.084Z,14.40
2022-10-11T14:22:52.901Z,14.40
2022-10-11T14:25:22.695Z,14.30
2022-10-11T14:27:50.825Z,14.40
2022-10-11T14:30:25.763Z,14.40
2022-10-11T14:32:56.867Z,14.40
2022-10-11T14:35:27.041Z,14.40
2022-10-11T14:37:55.704Z,14.50
2022-10-11T14:40:27.094Z,14.50
2022-10-11T14:42:55.119Z,14.50
2022-10-11T14:45:25.117Z,14.40
2022-10-11T14:48:13.575Z,14.40
2022-10-11T14:51:19.441Z,14.40
2022-10-11T14:54:07.344Z,14.40
2022-10-11T14:57:29.424Z,14.40
2022-10-11T14:59:57.929Z,14.40
2022-10-11T15:05:50.023Z,14.40
2022-10-11T15:08:33.993Z,14.40
2022-10-11T15:17:18.254Z,14.30
2022-10-11T15:19:48.007Z,14.20
2022-10-11T15:22:17.918Z,14.20
2022-10-11T15:24:51.386Z,14.30
2022-10-11T15:27:19.896Z,14.30
2022-10-11T15:30:03.724Z,14.40
2022-10-11T15:33:07.818Z,14.40
2022-10-11T15:35:48.392Z,14.40
2022-10-11T15:38:18.814Z,14.40
2022-10-11T15:40:51.187Z,14.40
2022-10-11T15:43:24.804Z,14.40
2022-10-11T15:46:03.728Z,14.30
2022-10-11T15:49:14.879Z,14.30
2022-10-11T15:51:42.742Z,14.20
2022-10-11T15:54:15.150Z,14.20
2022-10-11T15:56:51.535Z,14.10
2022-10-11T15:59:20.731Z,14.10
2022-10-11T16:01:58.747Z,14.00
2022-10-11T16:08:10.354Z,13.90
2022-10-11T16:10:41.177Z,13.90
2022-10-11T16:13:24.173Z,13.80
2022-10-11T16:15:52.588Z,13.80
2022-10-11T16:18:23.961Z,13.70
2022-10-11T16:20:53.039Z,13.70
2022-10-11T16:23:22.327Z,13.60
2022-10-11T16:26:37.215Z,13.50
2022-10-11T16:29:12.015Z,13.40
2022-10-11T16:31:40.889Z,13.40
2022-10-11T16:34:31.746Z,13.30
2022-10-11T16:37:04.755Z,13.20
2022-10-11T16:39:35.052Z,13.20
2022-10-11T16:42:04.909Z,13.10
2022-10-11T16:44:33.114Z,13.10
2022-10-11T16:47:03.790Z,13.00
2022-10-11T16:49:42.161Z,13.00
2022-10-11T16:52:14.055Z,12.90
2022-10-11T16:54:50.317Z,12.90
2022-10-11T16:57:58.826Z,12.90
2022-10-11T17:00:40.680Z,12.80
2022-10-11T17:06:44.435Z,12.70
2022-10-11T17:09:43.775Z,12.60
2022-10-11T17:12:49.279Z,12.60
2022-10-11T17:15:34.399Z,12.50
2022-10-11T17:18:51.460Z,12.40
2022-10-11T17:21:39.646Z,12.30
2022-10-11T17:24:14.246Z,12.30
2022-10-11T17:26:57.817Z,12.20
2022-10-11T17:32:42.227Z,12.10
2022-10-11T17:35:21.176Z,12.00
2022-10-11T17:38:05.737Z,12.00
2022-10-11T17:43:23.380Z,11.90
2022-10-11T17:45:58.073Z,11.80
2022-10-11T17:48:44.620Z,11.70
2022-10-11T17:51:15.225Z,11.70
2022-10-11T17:53:57.176Z,11.70
2022-10-11T17:56:35.063Z,11.60
2022-10-11T17:59:08.329Z,11.50
2022-10-11T18:02:02.874Z,11.40
2022-10-11T18:04:32.980Z,11.40
2022-10-11T18:07:00.865Z,11.30
2022-10-11T18:09:29.249Z,11.30
2022-10-11T18:11:58.408Z,11.30
2022-10-11T18:14:26.228Z,11.20
2022-10-11T18:16:56.465Z,11.20
2022-10-11T18:19:27.683Z,11.20
2022-10-11T18:22:18.126Z,11.20
2022-10-11T18:31:10.023Z,11.00
2022-10-11T18:33:47.359Z,11.00
2022-10-11T18:36:16.797Z,10.90
2022-10-11T18:38:47.099Z,10.90
2022-10-11T18:41:37.290Z,10.90
2022-10-11T18:44:21.192Z,10.80
2022-10-11T18:46:50.279Z,10.80
2022-10-11T18:49:27.215Z,10.80
2022-10-11T18:51:55.437Z,10.70
2022-10-11T18:54:33.547Z,10.70
2022-10-11T18:57:23.720Z,10.70
2022-10-11T18:59:55.949Z,10.60
2022-10-11T19:02:23.864Z,10.60
2022-10-11T19:04:55.446Z,10.50
2022-10-11T19:07:25.259Z,10.60
2022-10-11T19:10:02.633Z,10.50
2022-10-11T19:12:32.065Z,10.50
2022-10-11T19:15:01.732Z,10.40
2022-10-11T19:17:29.602Z,10.40
2022-10-11T19:19:59.946Z,10.40
2022-10-11T19:22:27.819Z,10.40
2022-10-11T19:24:55.697Z,10.30
2022-10-11T19:27:23.586Z,10.30
2022-10-11T19:29:51.481Z,10.30
2022-10-11T19:32:20.820Z,10.30
2022-10-11T19:34:48.631Z,10.20
2022-10-11T19:37:17.135Z,10.20
2022-10-11T19:39:45.005Z,10.20
2022-10-11T19:42:12.888Z,10.10
2022-10-11T19:44:40.730Z,10.10
2022-10-11T19:47:09.947Z,10.10
2022-10-11T19:49:39.249Z,10.00
2022-10-11T19:52:09.364Z,10.00
2022-10-11T19:54:37.186Z,10.00
2022-10-11T19:57:05.249Z,10.00
2022-10-11T19:59:33.069Z,10.00
2022-10-11T20:02:00.891Z,9.90
2022-10-11T20:04:52.346Z,9.90
2022-10-11T20:07:24.354Z,9.90
2022-10-11T20:09:52.220Z,9.80
2022-10-11T20:12:20.220Z,9.80
2022-10-11T20:14:49.691Z,9.80
2022-10-11T20:17:19.930Z,9.80
2022-10-11T20:19:50.339Z,9.80
2022-10-11T20:22:20.553Z,9.70
2022-10-11T20:24:49.904Z,9.80
2022-10-11T20:27:17.726Z,9.70
2022-10-11T20:29:45.539Z,9.70
2022-10-11T20:32:14.350Z,9.60
2022-10-11T20:34:42.153Z,9.60
2022-10-11T20:37:10.081Z,9.60
2022-10-11T20:39:39.682Z,9.60
2022-10-11T20:42:14.322Z,9.60
2022-10-11T20:44:44.438Z,9.60
2022-10-11T20:47:12.353Z,9.60
2022-10-11T20:49:40.188Z,9.50
2022-10-11T20:52:09.571Z,9.50
2022-10-11T20:54:43.891Z,9.50
2022-10-11T20:57:13.114Z,9.50
2022-10-11T20:59:41.300Z,9.40
2022-10-11T21:02:12.587Z,9.50
2022-10-11T21:04:42.315Z,9.40
2022-10-11T21:07:10.172Z,9.40
2022-10-11T21:09:38.022Z,9.40
2022-10-11T21:12:09.604Z,9.40
2022-10-11T21:14:40.092Z,9.40
2022-10-11T21:17:07.936Z,9.40
2022-10-11T21:19:35.780Z,9.40
2022-10-11T21:22:03.682Z,9.40
2022-10-11T21:24:31.530Z,9.40
2022-10-11T21:27:00.727Z,9.40
2022-10-11T21:29:28.845Z,9.50
2022-10-11T21:31:58.075Z,9.50
2022-10-11T21:34:25.946Z,9.60
2022-10-11T21:36:53.812Z,9.50
2022-10-11T21:39:21.781Z,9.60
2022-10-11T21:41:49.665Z,9.50
2022-10-11T21:44:28.523Z,9.60
2022-10-11T21:47:13.052Z,9.60
2022-10-11T21:49:56.731Z,9.60
2022-10-11T21:52:26.176Z,9.70
2022-10-11T21:54:54.069Z,9.70
2022-10-11T21:57:21.912Z,9.60
2022-10-11T22:00:07.897Z,9.70
2022-10-11T22:02:37.848Z,9.70
2022-10-11T22:05:07.166Z,9.60
2022-10-11T22:07:43.538Z,9.60
2022-10-11T22:10:12.266Z,9.70
2022-10-11T22:12:40.357Z,9.60
2022-10-11T22:15:09.240Z,9.60
2022-10-11T22:17:39.206Z,9.60
2022-10-11T22:20:14.647Z,9.70
2022-10-11T22:22:43.194Z,9.60
2022-10-11T22:25:11.051Z,9.70
2022-10-11T22:30:28.100Z,9.70
2022-10-11T22:32:58.598Z,9.70
2022-10-11T22:35:26.604Z,9.70
2022-10-11T22:37:54.611Z,9.70
2022-10-11T22:40:22.506Z,9.70
2022-10-11T22:42:50.709Z,9.70
2022-10-11T22:45:18.594Z,9.70
2022-10-11T22:47:46.393Z,9.70
2022-10-11T22:50:15.766Z,9.70
2022-10-11T22:52:43.611Z,9.70
2022-10-11T22:55:14.134Z,9.70
2022-10-11T22:57:44.209Z,9.70
2022-10-11T23:00:12.949Z,9.70
2022-10-11T23:02:41.092Z,9.70
2022-10-11T23:05:09.461Z,9.70
2022-10-11T23:07:39.158Z,9.70
2022-10-11T23:10:08.352Z,9.60
2022-10-11T23:12:36.305Z,9.60
2022-10-11T23:15:04.697Z,9.50
2022-10-11T23:17:32.994Z,9.50
2022-10-11T23:20:05.116Z,9.40
2022-10-11T23:22:32.945Z,9.40
2022-10-11T23:25:02.148Z,9.40
2022-10-11T23:27:30.518Z,9.30
2022-10-11T23:29:58.506Z,9.30
2022-10-11T23:32:26.472Z,9.20
2022-10-11T23:34:54.317Z,9.20
2022-10-11T23:37:22.369Z,9.20
2022-10-11T23:39:50.210Z,9.10
2022-10-11T23:42:19.449Z,9.10
2022-10-11T23:44:47.316Z,9.10
2022-10-11T23:47:15.233Z,9.00
2022-10-11T23:49:43.099Z,9.00
2022-10-11T23:52:10.972Z,8.90
2022-10-11T23:54:38.889Z,8.90
2022-10-11T23:57:06.738Z,8.90
2022-10-11T23:59:35.930Z,8.90
